Time;durP1;ratioP1;P1;durP2;ratioP2;P2;SDS_P1;SDS_P2;PMS_P1;PMS_P2;Temp;Humidity;BMP_temperature;BMP_pressure;BME280_temperature;BME280_humidity;BME280_pressure;Samples;Min_cycle;Max_cycle;Signal;HPM_P1;HPM_P2
2023/08/27 00:01:26;;;;;;;10.85;6.95;;;15.90;99.90;;;;;;5010605;28;20030;-62
2023/08/27 00:03:52;;;;;;;14.07;7.32;;;15.90;99.90;;;;;;5026452;28;20044;-62
2023/08/27 00:06:17;;;;;;;14.95;7.65;;;15.90;99.90;;;;;;5014452;28;20041;-64
2023/08/27 00:08:43;;;;;;;12.82;7.35;;;16.00;99.90;;;;;;5024472;28;20029;-62
2023/08/27 00:11:08;;;;;;;11.27;7.05;;;16.00;99.90;;;;;;5020921;28;20111;-62
2023/08/27 00:13:34;;;;;;;13.45;7.75;;;15.90;99.90;;;;;;5009421;28;20030;-62
2023/08/27 00:16:00;;;;;;;11.70;7.57;;;15.90;99.90;;;;;;5029646;28;20415;-63
2023/08/27 00:18:26;;;;;;;185.57;9.65;;;16.00;99.90;;;;;;5031278;28;20446;-62
2023/08/27 00:20:51;;;;;;;612.40;17.02;;;16.00;99.90;;;;;;5028814;28;20036;-62
2023/08/27 00:23:17;;;;;;;29.88;7.65;;;15.80;99.90;;;;;;5031903;28;20045;-63
2023/08/27 00:25:43;;;;;;;127.00;8.63;;;15.80;99.90;;;;;;5029919;28;20034;-62
2023/08/27 00:28:12;;;;;;;115.05;8.15;;;15.80;99.90;;;;;;5010225;28;20493;-62
2023/08/27 00:30:38;;;;;;;11.85;7.63;;;15.80;99.90;;;;;;5026974;28;20045;-67
2023/08/27 00:33:04;;;;;;;20.02;7.70;;;15.80;99.90;;;;;;5031035;28;20040;-62
2023/08/27 00:35:30;;;;;;;9.55;6.90;;;15.70;99.90;;;;;;5031612;28;20037;-63
2023/08/27 00:37:55;;;;;;;11.80;7.38;;;15.70;99.90;;;;;;5030323;28;20539;-62
2023/08/27 00:40:21;;;;;;;14.68;7.45;;;15.80;99.90;;;;;;5030493;28;20029;-62
2023/08/27 00:42:47;;;;;;;14.10;8.43;;;15.80;99.90;;;;;;5029121;28;20040;-63
2023/08/27 00:45:12;;;;;;;13.00;7.80;;;15.80;99.90;;;;;;5029247;28;20030;-63
2023/08/27 00:47:39;;;;;;;14.20;8.43;;;15.90;99.90;;;;;;5012226;28;20123;-65
2023/08/27 00:50:08;;;;;;;22.08;8.30;;;16.00;99.90;;;;;;5029327;28;20026;-62
2023/08/27 00:52:34;;;;;;;15.35;8.07;;;16.00;99.90;;;;;;5030429;28;20045;-63
2023/08/27 00:55:03;;;;;;;19.05;8.30;;;15.90;99.90;;;;;;5030279;28;20053;-63
2023/08/27 00:57:30;;;;;;;14.55;8.43;;;15.90;99.90;;;;;;5030368;28;20033;-62
2023/08/27 00:59:58;;;;;;;17.00;8.23;;;15.90;99.90;;;;;;5028986;28;20036;-62
2023/08/27 01:02:24;;;;;;;13.68;7.55;;;15.80;99.90;;;;;;5012599;28;20037;-63
2023/08/27 01:04:50;;;;;;;12.90;7.78;;;15.70;99.90;;;;;;5026627;28;20109;-63
2023/08/27 01:07:54;;;;;;;11.65;7.88;;;15.70;99.90;;;;;;5030618;28;20025;-61
2023/08/27 01:10:50;;;;;;;11.80;7.32;;;15.60;99.90;;;;;;5012614;28;20737;-64
2023/08/27 01:13:53;;;;;;;15.77;7.93;;;15.60;99.90;;;;;;5026086;28;20049;-62
2023/08/27 01:16:21;;;;;;;14.65;9.40;;;15.60;99.90;;;;;;4992235;28;20048;-62
2023/08/27 01:18:51;;;;;;;16.42;9.10;;;15.60;99.90;;;;;;5029167;28;20033;-63
2023/08/27 01:21:23;;;;;;;14.37;9.47;;;15.60;99.90;;;;;;5030242;28;20068;-61
2023/08/27 01:23:50;;;;;;;17.63;8.95;;;15.60;99.90;;;;;;5029652;28;20037;-62
2023/08/27 01:26:37;;;;;;;18.30;9.38;;;15.60;99.90;;;;;;5030198;28;20101;-62
2023/08/27 01:29:42;;;;;;;16.75;9.93;;;15.60;99.90;;;;;;5028745;28;20017;-62
2023/08/27 01:32:31;;;;;;;16.33;9.45;;;15.70;99.90;;;;;;4992126;28;20099;-62
2023/08/27 01:34:59;;;;;;;18.67;9.88;;;15.70;99.90;;;;;;5027248;28;20639;-63
2023/08/27 01:37:25;;;;;;;15.82;9.40;;;15.60;99.90;;;;;;5028473;28;20390;-62
2023/08/27 01:40:01;;;;;;;17.58;9.48;;;15.70;99.90;;;;;;5028944;28;20033;-63
2023/08/27 01:42:27;;;;;;;20.55;11.20;;;15.80;99.90;;;;;;5029492;28;20030;-62
2023/08/27 01:44:55;;;;;;;17.73;10.52;;;15.80;99.90;;;;;;5028485;28;20060;-65
2023/08/27 01:47:21;;;;;;;17.60;8.68;;;15.80;99.90;;;;;;5028772;28;20472;-62
2023/08/27 01:49:48;;;;;;;16.95;10.93;;;15.80;99.90;;;;;;5028826;28;20033;-65
2023/08/27 01:52:14;;;;;;;466.63;23.13;;;15.90;99.90;;;;;;5029333;28;20041;-64
2023/08/27 01:54:39;;;;;;;14.10;9.30;;;15.80;99.90;;;;;;5029538;28;20083;-62
2023/08/27 01:57:05;;;;;;;19.77;10.05;;;15.70;99.90;;;;;;5026321;28;20025;-61
2023/08/27 01:59:30;;;;;;;19.52;11.18;;;15.70;99.90;;;;;;5029284;28;20064;-64
2023/08/27 02:01:56;;;;;;;17.98;9.80;;;15.80;99.90;;;;;;5011025;28;20750;-62
2023/08/27 02:04:22;;;;;;;15.32;8.85;;;15.80;99.90;;;;;;5029001;28;20052;-63
2023/08/27 02:06:48;;;;;;;16.48;9.32;;;15.70;99.90;;;;;;5026880;28;20037;-62
2023/08/27 02:09:13;;;;;;;21.15;9.68;;;15.70;99.90;;;;;;5027529;28;20034;-62
2023/08/27 02:11:39;;;;;;;17.15;8.73;;;15.80;99.90;;;;;;5030125;28;20029;-62
2023/08/27 02:14:04;;;;;;;14.23;9.10;;;15.80;99.90;;;;;;5025740;28;20283;-62
2023/08/27 02:16:30;;;;;;;21.67;8.90;;;15.90;99.90;;;;;;4992515;28;20589;-63
2023/08/27 02:18:56;;;;;;;13.90;8.27;;;15.90;99.90;;;;;;5024815;28;20053;-62
2023/08/27 02:21:21;;;;;;;18.80;8.30;;;15.90;99.90;;;;;;5027877;28;20870;-62
2023/08/27 02:23:47;;;;;;;13.32;8.95;;;16.00;99.90;;;;;;5027945;28;20107;-67
2023/08/27 02:26:13;;;;;;;12.98;8.27;;;15.90;99.90;;;;;;5028522;28;20030;-62
2023/08/27 02:28:38;;;;;;;18.13;8.85;;;16.00;99.90;;;;;;5028490;28;20065;-63
2023/08/27 02:31:05;;;;;;;15.18;9.55;;;16.10;99.90;;;;;;5026127;28;20040;-63
2023/08/27 02:33:30;;;;;;;17.58;9.60;;;16.10;99.90;;;;;;5026560;28;20072;-62
2023/08/27 02:35:56;;;;;;;515.08;20.10;;;16.10;99.90;;;;;;5028187;28;20072;-62
2023/08/27 02:38:22;;;;;;;338.40;15.20;;;16.10;99.90;;;;;;5027271;28;20033;-62
2023/08/27 02:40:47;;;;;;;85.50;10.25;;;16.10;99.90;;;;;;5027608;28;20042;-68
2023/08/27 02:43:13;;;;;;;14.73;8.55;;;16.00;99.90;;;;;;5011265;28;20564;-62
2023/08/27 02:45:38;;;;;;;13.43;9.02;;;15.90;99.90;;;;;;5028544;28;20029;-63
2023/08/27 02:48:04;;;;;;;17.23;9.50;;;16.00;99.90;;;;;;5026223;28;20036;-62
2023/08/27 02:50:30;;;;;;;20.65;9.38;;;16.10;99.90;;;;;;5027862;28;20045;-63
2023/08/27 02:52:55;;;;;;;17.77;10.38;;;16.10;99.90;;;;;;5026969;28;20485;-62
2023/08/27 02:55:21;;;;;;;21.38;10.88;;;16.10;99.90;;;;;;5027698;28;20120;-63
2023/08/27 02:57:46;;;;;;;18.25;10.10;;;16.10;99.90;;;;;;5036961;28;20758;-68
2023/08/27 03:00:13;;;;;;;20.55;10.75;;;16.10;99.90;;;;;;5045345;28;20104;-65
2023/08/27 03:02:39;;;;;;;14.88;9.32;;;16.10;99.90;;;;;;5011632;28;20534;-63
2023/08/27 03:05:05;;;;;;;22.38;10.80;;;16.10;99.90;;;;;;5025391;28;20100;-62
2023/08/27 03:07:31;;;;;;;19.73;9.32;;;16.10;99.90;;;;;;5028536;28;20168;-63
2023/08/27 03:09:57;;;;;;;15.20;9.90;;;16.10;99.90;;;;;;5026172;28;20033;-62
2023/08/27 03:12:22;;;;;;;14.45;9.50;;;16.10;99.90;;;;;;5009367;28;20061;-65
2023/08/27 03:14:48;;;;;;;13.77;8.95;;;16.00;99.90;;;;;;5026323;28;20037;-68
2023/08/27 03:17:14;;;;;;;17.77;9.82;;;16.10;99.90;;;;;;5027727;28;20037;-63
2023/08/27 03:19:39;;;;;;;16.15;9.55;;;16.10;99.90;;;;;;5027025;28;20037;-63
2023/08/27 03:22:05;;;;;;;16.80;9.73;;;16.10;99.90;;;;;;5026561;28;20106;-63
2023/08/27 03:24:30;;;;;;;13.05;8.85;;;16.20;99.90;;;;;;5025580;28;20065;-63
2023/08/27 03:26:56;;;;;;;15.77;10.27;;;16.20;99.90;;;;;;5026528;28;20806;-63
2023/08/27 03:29:22;;;;;;;16.27;9.32;;;16.10;99.90;;;;;;5011044;28;20039;-64
2023/08/27 03:31:48;;;;;;;19.08;9.40;;;16.20;99.90;;;;;;5028573;28;20120;-68
2023/08/27 03:34:13;;;;;;;17.73;9.73;;;16.10;99.90;;;;;;5025399;28;20524;-63
2023/08/27 03:36:40;;;;;;;15.73;9.95;;;16.20;99.90;;;;;;5027175;28;20061;-64
2023/08/27 03:39:05;;;;;;;22.88;9.88;;;16.10;99.90;;;;;;5027889;28;20022;-63
2023/08/27 03:41:31;;;;;;;15.95;9.48;;;16.20;99.90;;;;;;5026726;28;20060;-63
2023/08/27 03:43:57;;;;;;;19.00;9.73;;;16.20;99.90;;;;;;5025686;28;20076;-63
2023/08/27 03:46:23;;;;;;;23.00;10.38;;;16.10;99.90;;;;;;5026994;28;20026;-63
2023/08/27 03:48:48;;;;;;;16.25;10.10;;;16.20;99.90;;;;;;5028082;28;20045;-67
2023/08/27 03:51:14;;;;;;;15.77;10.10;;;16.20;99.90;;;;;;5031045;28;20034;-64
2023/08/27 03:53:40;;;;;;;13.13;8.95;;;16.20;99.90;;;;;;5031321;28;20049;-64
2023/08/27 03:56:06;;;;;;;14.63;9.35;;;16.20;99.90;;;;;;5029924;28;20083;-63
2023/08/27 03:58:32;;;;;;;18.15;10.25;;;16.10;99.90;;;;;;5031039;28;20049;-63
2023/08/27 04:00:58;;;;;;;19.38;10.45;;;16.20;99.90;;;;;;5031116;28;20025;-63
2023/08/27 04:03:24;;;;;;;19.75;11.25;;;16.20;99.90;;;;;;5030778;28;20477;-65
2023/08/27 04:05:50;;;;;;;17.23;10.93;;;16.20;99.90;;;;;;5031328;28;20034;-69
2023/08/27 04:08:18;;;;;;;17.52;10.77;;;16.20;99.90;;;;;;5030889;28;20025;-63
2023/08/27 04:11:04;;;;;;;17.20;10.38;;;16.10;99.90;;;;;;5012516;28;20037;-63
2023/08/27 04:13:30;;;;;;;15.38;10.25;;;16.10;99.90;;;;;;5005132;28;20393;-65
2023/08/27 04:16:05;;;;;;;15.23;9.65;;;16.20;99.90;;;;;;5031162;28;20084;-62
2023/08/27 04:18:32;;;;;;;15.82;10.45;;;16.20;99.90;;;;;;5014513;28;20419;-64
2023/08/27 04:20:58;;;;;;;16.55;10.15;;;16.20;99.90;;;;;;5016773;28;20026;-63
2023/08/27 04:23:23;;;;;;;24.13;10.43;;;16.20;99.90;;;;;;5031385;28;20362;-65
2023/08/27 04:25:49;;;;;;;16.10;10.05;;;16.30;99.90;;;;;;5031997;28;20441;-64
2023/08/27 04:28:15;;;;;;;16.27;9.88;;;16.20;99.90;;;;;;5031388;28;20363;-63
2023/08/27 04:30:44;;;;;;;15.93;10.10;;;16.20;99.90;;;;;;5031221;28;20051;-63
2023/08/27 04:33:10;;;;;;;16.23;9.70;;;16.20;99.90;;;;;;5007959;28;20441;-64
2023/08/27 04:35:36;;;;;;;15.70;10.13;;;16.30;99.90;;;;;;5029720;28;20100;-63
2023/08/27 04:38:03;;;;;;;14.10;9.77;;;16.30;99.90;;;;;;5029222;28;20041;-66
2023/08/27 04:40:29;;;;;;;16.67;9.45;;;16.30;99.90;;;;;;5031430;28;20022;-65
2023/08/27 04:42:55;;;;;;;17.00;10.57;;;16.30;99.90;;;;;;5031044;28;20516;-69
2023/08/27 04:45:20;;;;;;;14.75;10.25;;;16.30;99.90;;;;;;5027082;28;20129;-63
2023/08/27 04:47:46;;;;;;;14.65;9.85;;;16.20;99.90;;;;;;5024816;28;20096;-65
2023/08/27 04:50:11;;;;;;;16.13;9.65;;;16.10;99.90;;;;;;5027140;28;20029;-63
2023/08/27 04:52:37;;;;;;;17.83;10.55;;;16.10;99.90;;;;;;5027812;28;20030;-65
2023/08/27 04:55:06;;;;;;;14.00;8.82;;;16.10;99.90;;;;;;5030116;28;20089;-63
2023/08/27 04:57:35;;;;;;;14.15;9.05;;;16.00;99.90;;;;;;5030547;28;20033;-63
2023/08/27 05:00:08;;;;;;;14.27;8.93;;;16.10;99.90;;;;;;5028926;28;20032;-64
2023/08/27 05:02:34;;;;;;;15.10;8.75;;;16.00;99.90;;;;;;5024972;28;20280;-65
2023/08/27 05:05:00;;;;;;;17.95;8.57;;;16.00;99.90;;;;;;5028170;28;20510;-66
2023/08/27 05:07:26;;;;;;;19.45;8.38;;;15.90;99.90;;;;;;5030654;28;20057;-62
2023/08/27 05:09:51;;;;;;;12.50;8.60;;;15.90;99.90;;;;;;5027795;28;20821;-63
2023/08/27 05:12:17;;;;;;;13.65;8.85;;;15.90;99.90;;;;;;5010706;28;20037;-64
2023/08/27 05:14:43;;;;;;;15.40;9.15;;;16.00;99.90;;;;;;5017969;28;20424;-63
2023/08/27 05:17:09;;;;;;;14.82;9.27;;;16.00;99.90;;;;;;5029453;28;20067;-64
2023/08/27 05:19:34;;;;;;;17.10;9.23;;;16.00;99.90;;;;;;5030477;28;20044;-63
2023/08/27 05:22:00;;;;;;;15.43;9.45;;;16.10;99.90;;;;;;5030141;28;20029;-63
2023/08/27 05:24:26;;;;;;;15.23;9.43;;;16.00;99.90;;;;;;5031332;28;20053;-63
2023/08/27 05:26:52;;;;;;;14.88;9.43;;;16.00;99.90;;;;;;5028558;28;20454;-63
2023/08/27 05:29:17;;;;;;;15.10;9.80;;;15.90;99.90;;;;;;5029026;28;20021;-64
2023/08/27 05:31:43;;;;;;;16.20;9.65;;;15.90;99.90;;;;;;5029945;28;20036;-62
2023/08/27 05:34:09;;;;;;;17.80;9.93;;;15.90;99.90;;;;;;5012036;28;20038;-65
2023/08/27 05:36:34;;;;;;;15.68;9.25;;;15.90;99.90;;;;;;5028968;28;20060;-63
2023/08/27 05:39:00;;;;;;;18.25;10.20;;;15.90;99.90;;;;;;5012119;28;20484;-64
2023/08/27 05:41:26;;;;;;;17.20;9.88;;;15.80;99.90;;;;;;5029582;28;20025;-62
2023/08/27 05:43:52;;;;;;;16.70;9.77;;;15.90;99.90;;;;;;5029848;28;20044;-65
2023/08/27 05:46:18;;;;;;;14.10;9.05;;;16.00;99.90;;;;;;5028985;28;20021;-63
2023/08/27 05:48:43;;;;;;;16.50;9.45;;;16.00;99.90;;;;;;5006177;28;20030;-63
2023/08/27 05:51:09;;;;;;;15.82;9.95;;;16.10;99.90;;;;;;5028163;28;20029;-64
2023/08/27 05:53:34;;;;;;;17.20;10.27;;;16.10;99.90;;;;;;5027743;28;20034;-63
2023/08/27 05:56:00;;;;;;;16.45;9.45;;;16.10;99.90;;;;;;5028261;28;20386;-64
2023/08/27 05:58:26;;;;;;;17.20;9.13;;;16.20;99.90;;;;;;5011683;28;20053;-63
2023/08/27 06:00:53;;;;;;;15.20;9.77;;;16.20;99.90;;;;;;5030489;28;20076;-64
2023/08/27 06:03:20;;;;;;;16.95;9.68;;;16.30;99.90;;;;;;5029551;28;20021;-63
2023/08/27 06:05:45;;;;;;;15.18;9.35;;;16.30;99.90;;;;;;5029522;28;20035;-63
2023/08/27 06:08:11;;;;;;;16.15;9.15;;;16.40;99.90;;;;;;5029385;28;20117;-63
2023/08/27 06:10:36;;;;;;;14.30;8.93;;;16.40;99.90;;;;;;5027692;28;20067;-64
2023/08/27 06:13:03;;;;;;;15.25;8.43;;;16.40;99.90;;;;;;5025198;28;20485;-64
2023/08/27 06:15:29;;;;;;;17.92;9.65;;;16.60;99.90;;;;;;5006638;28;20034;-65
2023/08/27 06:17:55;;;;;;;17.48;9.60;;;16.70;99.90;;;;;;5026461;28;20018;-62
2023/08/27 06:20:21;;;;;;;17.88;9.13;;;16.70;99.90;;;;;;5027772;28;20975;-69
2023/08/27 06:22:47;;;;;;;19.52;9.32;;;16.70;99.90;;;;;;5029441;28;20017;-62
2023/08/27 06:25:13;;;;;;;16.13;9.55;;;16.90;99.90;;;;;;5025087;28;20040;-63
2023/08/27 06:27:38;;;;;;;12.95;8.60;;;16.90;99.90;;;;;;5028595;28;20041;-64
2023/08/27 06:30:05;;;;;;;50.22;10.20;;;16.90;99.90;;;;;;5010276;28;20040;-66
2023/08/27 06:32:31;;;;;;;15.48;8.57;;;16.90;99.90;;;;;;5029204;28;20036;-63
2023/08/27 06:34:57;;;;;;;17.67;8.90;;;17.00;99.90;;;;;;5011339;28;20037;-62
2023/08/27 06:37:22;;;;;;;16.50;8.73;;;16.70;99.90;;;;;;5024423;28;20083;-63
2023/08/27 06:39:49;;;;;;;14.82;8.77;;;16.80;99.90;;;;;;5010446;28;20472;-63
2023/08/27 06:42:15;;;;;;;19.35;10.20;;;16.70;99.90;;;;;;5029606;28;20033;-62
2023/08/27 06:44:41;;;;;;;16.42;10.18;;;16.70;99.90;;;;;;5037437;28;20682;-63
2023/08/27 06:47:07;;;;;;;16.23;9.48;;;16.70;99.90;;;;;;5025838;28;20029;-62
2023/08/27 06:49:32;;;;;;;15.38;9.80;;;16.80;99.90;;;;;;5028625;28;20037;-65
2023/08/27 06:51:58;;;;;;;17.40;9.05;;;16.80;99.90;;;;;;5021474;28;20032;-63
2023/08/27 06:54:24;;;;;;;15.75;9.48;;;16.90;99.90;;;;;;5006540;28;20549;-70
2023/08/27 06:56:50;;;;;;;15.68;9.88;;;16.90;99.90;;;;;;5022679;28;20025;-64
2023/08/27 06:59:16;;;;;;;15.88;9.82;;;16.90;99.90;;;;;;5003230;28;20114;-64
2023/08/27 07:01:42;;;;;;;19.63;10.13;;;16.80;99.90;;;;;;5024183;28;20148;-64
2023/08/27 07:04:08;;;;;;;16.80;10.60;;;16.70;99.90;;;;;;5026386;28;20179;-64
2023/08/27 07:06:34;;;;;;;19.77;10.50;;;16.90;99.90;;;;;;5020434;28;20025;-66
2023/08/27 07:09:00;;;;;;;17.42;10.82;;;16.80;99.90;;;;;;5025900;28;20076;-70
2023/08/27 07:11:26;;;;;;;21.02;11.23;;;16.80;99.90;;;;;;5025321;28;20025;-64
2023/08/27 07:13:52;;;;;;;32.60;11.07;;;17.00;99.90;;;;;;5004300;28;20037;-64
2023/08/27 07:16:19;;;;;;;19.48;11.32;;;16.80;99.90;;;;;;5025920;28;20033;-65
2023/08/27 07:18:46;;;;;;;22.08;10.48;;;16.80;99.90;;;;;;5028886;28;20033;-64
2023/08/27 07:21:13;;;;;;;18.67;10.32;;;16.90;99.90;;;;;;5024890;28;20049;-65
2023/08/27 07:23:39;;;;;;;17.30;10.65;;;16.70;99.90;;;;;;5024324;28;20045;-65
2023/08/27 07:26:05;;;;;;;20.27;10.73;;;16.60;99.90;;;;;;5024067;28;20038;-70
2023/08/27 07:28:31;;;;;;;20.92;10.88;;;16.60;99.90;;;;;;5026000;28;20087;-66
2023/08/27 07:30:57;;;;;;;18.17;10.32;;;16.80;99.90;;;;;;5008997;28;20033;-64
2023/08/27 07:33:22;;;;;;;20.23;10.88;;;16.50;99.90;;;;;;5000824;28;20038;-65
2023/08/27 07:35:48;;;;;;;21.15;11.88;;;16.70;99.90;;;;;;5019767;28;20041;-64
2023/08/27 07:38:15;;;;;;;21.63;10.68;;;16.80;99.90;;;;;;5005785;28;20040;-65
2023/08/27 07:40:41;;;;;;;27.55;11.10;;;16.80;99.90;;;;;;5026424;28;20109;-65
2023/08/27 07:43:07;;;;;;;20.73;10.48;;;16.60;99.90;;;;;;5021782;28;20029;-63
2023/08/27 07:45:33;;;;;;;17.88;9.52;;;16.70;99.90;;;;;;5027767;28;20044;-63
2023/08/27 07:47:59;;;;;;;18.80;9.32;;;16.80;99.90;;;;;;5021496;28;20030;-63
2023/08/27 07:50:26;;;;;;;16.60;9.57;;;16.80;99.90;;;;;;5026201;28;20244;-63
2023/08/27 07:52:53;;;;;;;14.82;8.70;;;16.90;99.90;;;;;;5024678;28;20026;-63
2023/08/27 07:55:19;;;;;;;14.98;9.05;;;17.00;99.90;;;;;;5022404;28;20152;-63
2023/08/27 07:57:44;;;;;;;17.20;8.68;;;17.10;99.90;;;;;;5006957;28;20036;-63
2023/08/27 08:00:13;;;;;;;14.27;8.98;;;17.30;99.90;;;;;;5027280;28;20029;-65
2023/08/27 08:02:40;;;;;;;14.18;8.38;;;17.30;99.90;;;;;;5028101;28;20495;-64
2023/08/27 08:05:06;;;;;;;13.98;7.57;;;17.30;99.90;;;;;;5026262;28;20382;-68
2023/08/27 08:07:33;;;;;;;13.32;7.47;;;17.40;99.90;;;;;;5028213;28;20030;-63
2023/08/27 08:09:58;;;;;;;16.77;8.63;;;17.30;99.90;;;;;;5027981;28;20044;-63
2023/08/27 08:12:24;;;;;;;11.65;7.70;;;17.30;99.90;;;;;;5009782;28;20022;-63
2023/08/27 08:14:50;;;;;;;12.65;7.05;;;17.40;99.90;;;;;;5027423;28;20048;-63
2023/08/27 08:17:15;;;;;;;10.38;5.95;;;17.40;99.90;;;;;;5026887;28;20029;-63
2023/08/27 08:19:41;;;;;;;15.25;6.00;;;17.30;99.90;;;;;;5027950;28;20439;-63
2023/08/27 08:22:07;;;;;;;13.07;6.20;;;17.00;99.90;;;;;;5026904;28;20108;-68
2023/08/27 08:24:32;;;;;;;14.90;6.45;;;17.10;99.90;;;;;;5024306;28;20482;-64
2023/08/27 08:27:02;;;;;;;9.40;5.68;;;17.20;99.90;;;;;;5021821;28;20453;-64
2023/08/27 08:29:28;;;;;;;10.70;5.87;;;17.20;99.90;;;;;;5005177;28;20827;-64
2023/08/27 08:31:53;;;;;;;9.95;5.57;;;17.30;99.90;;;;;;5026680;28;20033;-63
2023/08/27 08:34:19;;;;;;;8.32;4.60;;;17.30;99.90;;;;;;5024089;28;20084;-63
2023/08/27 08:36:44;;;;;;;7.15;4.50;;;17.20;99.90;;;;;;5026691;28;20026;-63
2023/08/27 08:39:10;;;;;;;10.13;5.63;;;17.00;99.90;;;;;;5029311;28;20095;-66
2023/08/27 08:41:41;;;;;;;8.18;5.35;;;16.90;99.90;;;;;;5027647;28;20053;-63
2023/08/27 08:44:32;;;;;;;10.80;5.38;;;16.80;99.90;;;;;;5027443;28;20084;-68
2023/08/27 08:46:59;;;;;;;10.05;5.55;;;16.90;99.90;;;;;;5012630;28;20029;-64
2023/08/27 08:49:28;;;;;;;8.75;5.95;;;16.90;99.90;;;;;;5027426;28;20036;-62
2023/08/27 08:51:59;;;;;;;11.05;5.85;;;16.80;99.90;;;;;;5030398;28;20037;-69
2023/08/27 08:54:26;;;;;;;12.32;5.88;;;16.90;99.90;;;;;;5027179;28;20068;-68
2023/08/27 08:56:55;;;;;;;8.70;5.18;;;17.10;99.90;;;;;;5028150;28;20033;-68
2023/08/27 08:59:22;;;;;;;12.80;6.60;;;17.10;99.90;;;;;;5027555;28;20394;-69
2023/08/27 09:01:48;;;;;;;10.82;6.22;;;17.10;99.90;;;;;;5030034;28;20096;-71
2023/08/27 09:04:15;;;;;;;9.80;6.25;;;17.10;99.90;;;;;;5027021;28;20393;-70
2023/08/27 09:06:42;;;;;;;9.05;5.70;;;17.20;99.90;;;;;;5030827;28;20029;-70
2023/08/27 09:09:09;;;;;;;10.77;6.00;;;17.40;99.90;;;;;;5013136;28;20621;-70
2023/08/27 09:11:36;;;;;;;10.00;5.90;;;17.40;99.90;;;;;;5028242;28;20033;-68
2023/08/27 09:14:03;;;;;;;9.45;6.18;;;17.40;99.90;;;;;;5020711;28;20123;-67
2023/08/27 09:16:30;;;;;;;9.70;6.20;;;17.50;99.90;;;;;;5017935;28;20026;-67
2023/08/27 09:18:56;;;;;;;9.18;5.75;;;17.50;99.90;;;;;;5012159;28;20025;-67
2023/08/27 09:21:22;;;;;;;14.00;6.05;;;17.50;99.90;;;;;;5025521;28;20036;-67
2023/08/27 09:23:48;;;;;;;9.95;6.10;;;17.50;99.90;;;;;;5025939;28;20037;-67
2023/08/27 09:26:16;;;;;;;8.05;5.30;;;17.70;99.90;;;;;;5008654;28;20034;-67
2023/08/27 09:28:41;;;;;;;11.13;5.95;;;17.80;99.90;;;;;;5026728;28;20025;-67
2023/08/27 09:31:10;;;;;;;8.95;5.18;;;17.90;99.90;;;;;;5011889;28;20504;-67
2023/08/27 09:33:41;;;;;;;12.27;5.05;;;17.90;99.90;;;;;;5019134;28;20025;-67
2023/08/27 09:36:08;;;;;;;14.35;5.88;;;18.10;99.90;;;;;;5027695;28;20029;-67
2023/08/27 09:38:34;;;;;;;10.00;5.72;;;18.20;99.90;;;;;;5026025;28;20041;-67
2023/08/27 09:41:16;;;;;;;9.60;5.07;;;18.10;99.90;;;;;;5028482;28;20049;-66
2023/08/27 09:43:52;;;;;;;9.23;4.93;;;18.10;99.90;;;;;;5029608;28;20117;-67
2023/08/27 09:46:18;;;;;;;8.43;4.88;;;18.00;99.90;;;;;;5027042;28;20048;-67
2023/08/27 09:48:44;;;;;;;7.55;4.05;;;18.00;99.90;;;;;;5028994;28;20025;-67
2023/08/27 09:51:09;;;;;;;11.68;4.70;;;18.00;99.90;;;;;;5029160;28;20666;-67
2023/08/27 09:53:35;;;;;;;9.35;4.97;;;18.10;99.90;;;;;;5022377;28;20040;-66
2023/08/27 09:56:04;;;;;;;8.40;4.30;;;18.30;99.90;;;;;;5025336;28;20029;-66
2023/08/27 09:58:29;;;;;;;8.57;3.90;;;18.30;99.90;;;;;;5029347;28;20029;-67
2023/08/27 10:00:59;;;;;;;6.50;3.78;;;18.30;99.90;;;;;;5030413;28;20029;-67
2023/08/27 10:03:26;;;;;;;7.43;4.57;;;18.30;99.90;;;;;;5025977;28;20389;-67
2023/08/27 10:05:51;;;;;;;7.65;4.30;;;18.20;99.90;;;;;;5030067;28;20021;-66
2023/08/27 10:08:17;;;;;;;7.15;3.90;;;18.20;99.90;;;;;;5025988;28;20033;-66
2023/08/27 10:10:43;;;;;;;6.38;4.10;;;18.10;99.90;;;;;;5027852;28;20109;-67
2023/08/27 10:13:10;;;;;;;7.82;4.00;;;18.00;99.90;;;;;;5020375;28;20204;-67
2023/08/27 10:15:36;;;;;;;6.75;3.53;;;18.10;99.90;;;;;;5010077;28;20030;-66
2023/08/27 10:18:04;;;;;;;7.70;4.22;;;18.00;99.90;;;;;;5017190;28;20078;-66
2023/08/27 10:20:31;;;;;;;6.80;3.85;;;18.20;99.90;;;;;;5026556;28;20072;-66
2023/08/27 10:22:57;;;;;;;6.50;3.60;;;18.10;99.90;;;;;;5026418;28;20260;-66
2023/08/27 10:25:24;;;;;;;8.23;3.78;;;18.10;99.90;;;;;;5026829;28;20069;-66
2023/08/27 10:27:51;;;;;;;7.22;3.70;;;18.10;99.90;;;;;;5017712;28;20957;-66
2023/08/27 10:30:20;;;;;;;8.13;3.58;;;17.90;99.90;;;;;;5016834;28;20109;-66
2023/08/27 10:32:46;;;;;;;5.15;3.40;;;17.80;99.90;;;;;;5024733;28;20033;-66
2023/08/27 10:35:12;;;;;;;7.13;3.78;;;17.80;99.90;;;;;;5016508;28;20033;-66
2023/08/27 10:37:43;;;;;;;8.13;3.72;;;17.70;99.90;;;;;;5029113;28;20029;-66
2023/08/27 10:40:12;;;;;;;6.15;3.50;;;17.80;99.90;;;;;;5028719;28;20180;-66
2023/08/27 10:42:38;;;;;;;5.18;3.53;;;17.90;99.90;;;;;;5022280;28;20497;-67
2023/08/27 10:45:21;;;;;;;6.88;3.45;;;17.90;99.90;;;;;;5014887;28;20029;-66
2023/08/27 10:48:11;;;;;;;5.57;3.67;;;17.80;99.90;;;;;;5025712;28;20040;-66
2023/08/27 10:50:51;;;;;;;7.50;3.65;;;17.70;99.90;;;;;;5017623;28;20025;-66
2023/08/27 10:53:18;;;;;;;14.48;3.60;;;17.70;99.90;;;;;;5026401;28;20029;-66
2023/08/27 10:55:52;;;;;;;10.07;3.80;;;17.70;99.90;;;;;;5027488;28;20053;-66
2023/08/27 10:58:22;;;;;;;12.70;3.80;;;17.60;99.90;;;;;;5024721;28;20064;-66
2023/08/27 11:01:04;;;;;;;6.10;3.95;;;17.30;99.90;;;;;;5020751;28;20036;-66
2023/08/27 11:04:04;;;;;;;6.78;4.03;;;17.30;99.90;;;;;;5025856;28;20061;-66
2023/08/27 11:06:40;;;;;;;8.07;4.43;;;17.30;99.90;;;;;;4981517;28;20038;-67
2023/08/27 11:09:14;;;;;;;6.40;3.80;;;17.10;99.90;;;;;;5028102;28;20041;-66
2023/08/27 11:11:41;;;;;;;7.25;3.97;;;17.10;99.90;;;;;;5026533;28;20432;-67
2023/08/27 11:14:10;;;;;;;7.28;3.42;;;17.00;99.90;;;;;;5019792;28;20046;-65
2023/08/27 11:16:57;;;;;;;7.43;3.15;;;16.90;99.90;;;;;;5022442;28;20029;-66
2023/08/27 11:19:37;;;;;;;5.88;3.80;;;16.80;99.90;;;;;;5017698;28;20039;-66
2023/08/27 11:22:13;;;;;;;5.90;3.70;;;16.70;99.90;;;;;;5020432;28;20029;-66
2023/08/27 11:24:42;;;;;;;7.57;3.92;;;16.80;99.90;;;;;;5020225;28;20038;-66
2023/08/27 11:27:09;;;;;;;6.80;3.33;;;16.70;99.90;;;;;;5011652;28;20037;-65
2023/08/27 11:29:41;;;;;;;6.28;3.00;;;16.70;99.90;;;;;;5006008;28;20243;-66
2023/08/27 11:32:08;;;;;;;4.65;2.30;;;16.70;99.90;;;;;;5022175;28;20037;-66
2023/08/27 11:34:39;;;;;;;4.63;2.33;;;16.50;99.90;;;;;;5027004;28;20067;-67
2023/08/27 11:37:05;;;;;;;4.20;2.53;;;16.50;99.90;;;;;;5025416;28;20092;-66
2023/08/27 11:39:32;;;;;;;5.88;2.70;;;16.40;99.90;;;;;;5026063;28;20022;-67
2023/08/27 11:41:58;;;;;;;4.85;2.75;;;16.40;99.90;;;;;;5024979;28;20052;-67
2023/08/27 11:44:24;;;;;;;3.53;2.10;;;16.40;99.90;;;;;;5024590;28;20408;-67
2023/08/27 11:46:51;;;;;;;3.85;2.28;;;16.40;99.90;;;;;;5028856;28;20029;-67
2023/08/27 11:49:28;;;;;;;4.68;2.58;;;16.60;99.90;;;;;;5026494;28;20496;-67
2023/08/27 11:51:56;;;;;;;4.60;2.65;;;16.60;99.90;;;;;;5026930;28;20037;-68
2023/08/27 11:54:24;;;;;;;8.20;2.35;;;16.70;99.90;;;;;;5026481;28;20061;-66
2023/08/27 11:56:51;;;;;;;6.13;2.58;;;16.70;99.90;;;;;;5023706;28;20041;-68
2023/08/27 11:59:17;;;;;;;4.95;2.60;;;16.80;99.90;;;;;;5019662;28;20053;-67
2023/08/27 12:01:45;;;;;;;6.53;3.10;;;16.90;99.90;;;;;;5024616;28;20038;-67
2023/08/27 12:04:11;;;;;;;5.88;2.67;;;16.90;99.90;;;;;;5013997;28;20034;-67
2023/08/27 12:06:37;;;;;;;3.90;2.50;;;16.80;99.90;;;;;;5008055;28;20097;-66
2023/08/27 12:09:03;;;;;;;6.18;2.90;;;16.70;99.90;;;;;;5019273;28;20240;-67
2023/08/27 12:11:30;;;;;;;4.93;2.78;;;16.70;99.90;;;;;;5025886;28;20021;-67
2023/08/27 12:13:59;;;;;;;4.00;2.60;;;16.60;99.90;;;;;;5026328;28;20040;-67
2023/08/27 12:16:29;;;;;;;5.30;2.80;;;16.80;99.90;;;;;;5029624;28;20033;-67
2023/08/27 12:19:03;;;;;;;;;;;16.90;99.90;;;;;;5028906;28;20029;-66
2023/08/27 12:21:33;;;;;;;5.20;2.60;;;16.90;99.90;;;;;;5027880;28;19912;-67
2023/08/27 12:23:59;;;;;;;4.85;2.03;;;16.90;99.90;;;;;;5029514;28;20464;-66
2023/08/27 12:26:24;;;;;;;3.75;2.33;;;17.00;99.90;;;;;;5027371;28;20045;-67
2023/08/27 12:28:55;;;;;;;6.43;2.20;;;17.00;99.90;;;;;;5029224;28;20025;-66
2023/08/27 12:31:24;;;;;;;3.78;2.08;;;17.10;99.90;;;;;;5021898;28;20111;-67
2023/08/27 12:33:56;;;;;;;3.75;2.22;;;17.00;99.90;;;;;;5023688;28;20046;-67
2023/08/27 12:36:24;;;;;;;3.83;2.10;;;17.00;99.90;;;;;;5016872;28;20091;-67
2023/08/27 12:38:50;;;;;;;3.05;1.90;;;17.10;99.90;;;;;;5012346;28;20083;-67
2023/08/27 12:41:16;;;;;;;3.00;1.67;;;17.20;99.90;;;;;;5030754;28;20022;-67